#dbistima — V2PX5 — position and weather

sailwx.info

Track history (hours):
 
Tides and Currents Weather Stations Pressure Air Temp Water Temp Dewpoint Dewpoint Depression Visibility Wind Speed Wind Dir Waves Ship Positions

#dbistima

Last reported at 2018-May-22 09:23 UTC. Time now 2018-May-24 11:49 UTC.
Position N 48°54' W 005°48'.

MMSI: 304010972.

Date/timePositionNaut miles runAvg speedWind from/ knotsBaromVisibWave heightAir tempDewpointWater temp
2018-May-22 09:23N 48°54' W 005°48'4 9.1
2018-May-22 08:59N 48°57' W 005°43'10510.4
2018-May-21 22:55N 49°50' W 003°25'4 9.4
2018-May-21 22:30N 49°52' W 003°20'5 9.6
2018-May-21 22:00N 49°55' W 003°13'710.1
2018-May-21 21:17N 49°58' W 003°04'310.3
2018-May-21 21:00N 49°60' W 002°60'510.9
2018-May-21 20:30N 50°01' W 002°51'611.6
2018-May-21 20:00N 50°03' W 002°43'3212.9
2018-May-21 17:32N 50°12' W 001°55'112.8
2018-May-21 17:28N 50°12' W 001°54'612.6
2018-May-21 17:00N 50°14' W 001°45'611.9
2018-May-21 16:30N 50°15' W 001°36'611.3
2018-May-21 16:00N 50°17' W 001°28'510.6
2018-May-21 15:30N 50°18' W 001°20'5 9.8
2018-May-21 14:59N 50°19' W 001°12'34 8.4
2018-May-21 10:58N 50°29' W 000°21'910.1
2018-May-21 10:06N 50°31' W 000°08'110.7
2018-May-21 10:00N 50°31' W 000°06'510.9
2018-May-21 09:31N 50°33' E 000°02'611.4
2018-May-21 09:00N 50°34' E 000°11'611.6
2018-May-21 08:30N 50°36' E 000°19'611.7
2018-May-21 08:01N 50°37' E 000°28'611.4
2018-May-21 07:30N 50°40' E 000°36'611.4
2018-May-21 07:00N 50°43' E 000°44'510.9
2018-May-21 06:30N 50°46' E 000°51'31 9.1
2018-May-21 03:04N 51°06' E 001°30'1 9.1
2018-May-21 02:58N 51°06' E 001°31'4 9.3
2018-May-21 02:31N 51°09' E 001°36'5 9.9
2018-May-21 02:01N 51°12' E 001°42'510.6
2018-May-21 01:31N 51°16' E 001°47'612.0
2018-May-21 01:01N 51°22' E 001°51'612.4
2018-May-21 00:30N 51°28' E 001°55'612.5
2018-May-21 00:00N 51°32' E 002°02'612.3
2018-May-20 23:30N 51°37' E 002°09'612.0
2018-May-20 23:00N 51°41' E 002°15'611.7
2018-May-20 22:29N 51°45' E 002°22'511.1
2018-May-20 22:01N 51°49' E 002°28'510.7
2018-May-20 21:30N 51°53' E 002°33'510.2
2018-May-20 21:00N 51°57' E 002°39'5 9.9
2018-May-20 20:31N 52°01' E 002°44'5 9.6
2018-May-20 20:00N 52°05' E 002°49'5 9.3
2018-May-20 19:30N 52°08' E 002°54'5 9.0
2018-May-20 19:00N 52°12' E 002°59'5 8.8
2018-May-20 18:28N 52°16' E 003°04'4 8.8
2018-May-20 18:01N 52°19' E 003°07'5 8.9
2018-May-20 17:30N 52°22' E 003°12'5 9.3
2018-May-20 17:00N 52°26' E 003°16'5 9.6
2018-May-20 16:30N 52°30' E 003°21'710.3
2018-May-20 15:51N 52°35' E 003°28'410.9
2018-May-20 15:29N 52°38' E 003°32'511.1
2018-May-20 15:00N 52°43' E 003°37'611.3
2018-May-20 14:28N 52°48' E 003°43'511.4
2018-May-20 14:00N 52°52' E 003°48'611.4
2018-May-20 13:30N 52°56' E 003°55'611.5
2018-May-20 12:58N 52°60' E 004°03'611.4
2018-May-20 12:29N 53°03' E 004°10'611.0
2018-May-20 11:58N 53°07' E 004°17'510.6
2018-May-20 11:30N 53°11' E 004°23'510.7
2018-May-20 11:00N 53°15' E 004°26'510.0
2018-May-20 10:31N 53°20' E 004°29'5 9.8
2018-May-20 09:59N 53°25' E 004°32'5 9.4
2018-May-20 09:29N 53°29' E 004°35'14610.4
2018-May-19 19:25N 55°37' E 006°37'410.3
2018-May-19 19:00N 55°40' E 006°41'510.3
2018-May-19 18:29N 55°45' E 006°45'510.3
2018-May-19 18:01N 55°49' E 006°50'20010.4
2018-May-18 22:44N 58°37' E 010°13'210.6
2018-May-18 22:30N 58°39' E 010°16'510.3
2018-May-18 22:01N 58°43' E 010°21'510.4
2018-May-18 21:31N 58°47' E 010°27'611.0
2018-May-18 21:01N 58°52' E 010°33'611.0
2018-May-18 20:31N 58°56' E 010°39'510.8
2018-May-18 20:01N 59°01' E 010°45'4 8.8
2018-May-18 19:31N 59°01' E 010°54'3 6.2
2018-May-18 19:01N 59°03' E 010°58'510.5
2018-May-18 18:30N 59°09' E 010°58'3 5.2
2018-May-18 18:00N 59°11' E 010°57'0 0.0
2018-May-18 17:30N 59°11' E 010°57'0 0.0
2018-May-18 17:00N 59°11' E 010°57'0 0.0
2018-May-18 16:30N 59°11' E 010°57'0 0.0
2018-May-18 16:00N 59°11' E 010°57'0 0.0
2018-May-18 15:30N 59°11' E 010°57'0 0.0
2018-May-18 15:00N 59°11' E 010°57'0 0.0
2018-May-18 14:30N 59°11' E 010°57'0 0.0
2018-May-18 14:00N 59°11' E 010°57'0 0.0
2018-May-18 13:30N 59°11' E 010°57'0 0.0
2018-May-18 13:00N 59°11' E 010°57'0 0.0
2018-May-18 12:30N 59°11' E 010°57'0 0.0
2018-May-18 12:00N 59°11' E 010°57'0 0.0
2018-May-18 11:30N 59°11' E 010°57'0 0.0
2018-May-18 11:00N 59°11' E 010°57'0 0.0
2018-May-18 10:30N 59°11' E 010°57'0 0.0
2018-May-18 10:00N 59°11' E 010°57'0 0.0
2018-May-18 09:30N 59°11' E 010°57'0 0.0
2018-May-18 09:00N 59°11' E 010°57'0 0.0
2018-May-18 08:30N 59°11' E 010°57'0 0.0
2018-May-18 08:00N 59°11' E 010°57'0 0.0
2018-May-18 07:30N 59°11' E 010°57'0 0.0
2018-May-18 07:00N 59°11' E 010°57'0 0.0
2018-May-18 06:30N 59°11' E 010°57'0 0.0
2018-May-18 06:00N 59°11' E 010°57'0 0.0
2018-May-18 05:30N 59°11' E 010°57'0 0.0
2018-May-18 05:00N 59°11' E 010°57'0 0.0
2018-May-18 04:30N 59°11' E 010°57'1 1.7
2018-May-18 04:00N 59°10' E 010°57'5 9.4
2018-May-18 03:30N 59°06' E 010°58'4 9.0
2018-May-18 03:00N 59°01' E 010°57'4 8.6
2018-May-18 02:30N 59°02' E 010°48'4 7.6
2018-May-18 02:00N 58°59' E 010°43'4 8.3
2018-May-18 01:30N 58°56' E 010°38'4 8.4
2018-May-18 01:00N 58°52' E 010°34'4 8.0
2018-May-18 00:30N 58°49' E 010°29'4 8.1
2018-May-18 00:00N 58°45' E 010°25'4 7.8
2018-May-17 23:30N 58°42' E 010°21'4 7.8
2018-May-17 23:00N 58°39' E 010°17'4 7.8
2018-May-17 22:30N 58°36' E 010°13'194 8.3
2018-May-16 23:08N 55°44' E 007°23'1 6.4
2018-May-16 23:00N 55°44' E 007°23'3 5.8
2018-May-16 22:30N 55°41' E 007°21'3 6.3
2018-May-16 21:59N 55°38' E 007°20'3 5.8
2018-May-16 21:30N 55°35' E 007°19'4 5.2
2018-May-16 20:48N 55°32' E 007°16'2 6.0
2018-May-16 20:30N 55°30' E 007°14'3 5.9
2018-May-16 20:00N 55°28' E 007°12'3 6.0
2018-May-16 19:30N 55°25' E 007°10'3 5.4
2018-May-16 19:00N 55°22' E 007°09'3 6.0
2018-May-16 18:30N 55°19' E 007°07'3 5.6
2018-May-16 18:00N 55°17' E 007°05'3 5.8
2018-May-16 17:30N 55°14' E 007°03'3 6.5
2018-May-16 17:00N 55°11' E 007°01'3 6.4
2018-May-16 16:30N 55°08' E 006°60'3 6.3
2018-May-16 16:00N 55°05' E 006°58'3 6.7
2018-May-16 15:30N 55°02' E 006°56'3 6.7
2018-May-16 15:00N 54°59' E 006°53'3 5.8
2018-May-16 14:30N 54°56' E 006°52'3 5.0
2018-May-16 14:00N 54°54' E 006°51'3 5.9
2018-May-16 13:30N 54°51' E 006°49'3 5.9
2018-May-16 13:00N 54°48' E 006°48'3 6.4
2018-May-16 12:29N 54°45' E 006°46'3 6.6
2018-May-16 12:00N 54°42' E 006°45'12 6.9
2018-May-16 10:20N 54°31' E 006°39'12 8.1
2018-May-16 08:54N 54°20' E 006°30'45 8.1
2018-May-16 03:24N 53°36' E 006°35'512.4
2018-May-16 02:59N 53°33' E 006°42'712.5
2018-May-16 02:28N 53°29' E 006°50'612.8
2018-May-16 01:58N 53°24' E 006°57'12 9.6
2018-May-16 00:42N 53°19' E 007°16'310.0
2018-May-16 00:27N 53°19' E 007°20'4 8.1
2018-May-16 00:00N 53°16' E 007°24'5 7.4
2018-May-15 23:23N 53°11' E 007°24'3 6.4
2018-May-15 22:52N 53°08' E 007°22'2 4.9
2018-May-15 22:28N 53°06' E 007°22'1 0.1
2018-May-15 17:44N 53°06' E 007°22'  
Track history (hours):
 
Tides and Currents Weather Stations Pressure Air Temp Water Temp Dewpoint Dewpoint Depression Visibility Wind Speed Wind Dir Waves Ship Positions

#dbistima

Last reported at 2018-May-22 09:23 UTC. Time now 2018-May-24 11:49 UTC.
Position N 48°54' W 005°48'.

MMSI: 304010972.

Date/timePositionNaut miles runAvg speedWind from/ knotsBaromVisibWave heightAir tempDewpointWater temp
2018-May-22 09:23N 48°54' W 005°48'4 9.1
2018-May-22 08:59N 48°57' W 005°43'10510.4
2018-May-21 22:55N 49°50' W 003°25'4 9.4
2018-May-21 22:30N 49°52' W 003°20'5 9.6
2018-May-21 22:00N 49°55' W 003°13'710.1
2018-May-21 21:17N 49°58' W 003°04'310.3
2018-May-21 21:00N 49°60' W 002°60'510.9
2018-May-21 20:30N 50°01' W 002°51'611.6
2018-May-21 20:00N 50°03' W 002°43'3212.9
2018-May-21 17:32N 50°12' W 001°55'112.8
2018-May-21 17:28N 50°12' W 001°54'612.6
2018-May-21 17:00N 50°14' W 001°45'611.9
2018-May-21 16:30N 50°15' W 001°36'611.3
2018-May-21 16:00N 50°17' W 001°28'510.6
2018-May-21 15:30N 50°18' W 001°20'5 9.8
2018-May-21 14:59N 50°19' W 001°12'34 8.4
2018-May-21 10:58N 50°29' W 000°21'910.1
2018-May-21 10:06N 50°31' W 000°08'110.7
2018-May-21 10:00N 50°31' W 000°06'510.9
2018-May-21 09:31N 50°33' E 000°02'611.4
2018-May-21 09:00N 50°34' E 000°11'611.6
2018-May-21 08:30N 50°36' E 000°19'611.7
2018-May-21 08:01N 50°37' E 000°28'611.4
2018-May-21 07:30N 50°40' E 000°36'611.4
2018-May-21 07:00N 50°43' E 000°44'510.9
2018-May-21 06:30N 50°46' E 000°51'31 9.1
2018-May-21 03:04N 51°06' E 001°30'1 9.1
2018-May-21 02:58N 51°06' E 001°31'4 9.3
2018-May-21 02:31N 51°09' E 001°36'5 9.9
2018-May-21 02:01N 51°12' E 001°42'510.6
2018-May-21 01:31N 51°16' E 001°47'612.0
2018-May-21 01:01N 51°22' E 001°51'612.4
2018-May-21 00:30N 51°28' E 001°55'612.5
2018-May-21 00:00N 51°32' E 002°02'612.3
2018-May-20 23:30N 51°37' E 002°09'612.0
2018-May-20 23:00N 51°41' E 002°15'611.7
2018-May-20 22:29N 51°45' E 002°22'511.1
2018-May-20 22:01N 51°49' E 002°28'510.7
2018-May-20 21:30N 51°53' E 002°33'510.2
2018-May-20 21:00N 51°57' E 002°39'5 9.9
2018-May-20 20:31N 52°01' E 002°44'5 9.6
2018-May-20 20:00N 52°05' E 002°49'5 9.3
2018-May-20 19:30N 52°08' E 002°54'5 9.0
2018-May-20 19:00N 52°12' E 002°59'5 8.8
2018-May-20 18:28N 52°16' E 003°04'4 8.8
2018-May-20 18:01N 52°19' E 003°07'5 8.9
2018-May-20 17:30N 52°22' E 003°12'5 9.3
2018-May-20 17:00N 52°26' E 003°16'5 9.6
2018-May-20 16:30N 52°30' E 003°21'710.3
2018-May-20 15:51N 52°35' E 003°28'410.9
2018-May-20 15:29N 52°38' E 003°32'511.1
2018-May-20 15:00N 52°43' E 003°37'611.3
2018-May-20 14:28N 52°48' E 003°43'511.4
2018-May-20 14:00N 52°52' E 003°48'611.4
2018-May-20 13:30N 52°56' E 003°55'611.5
2018-May-20 12:58N 52°60' E 004°03'611.4
2018-May-20 12:29N 53°03' E 004°10'611.0
2018-May-20 11:58N 53°07' E 004°17'510.6
2018-May-20 11:30N 53°11' E 004°23'510.7
2018-May-20 11:00N 53°15' E 004°26'510.0
2018-May-20 10:31N 53°20' E 004°29'5 9.8
2018-May-20 09:59N 53°25' E 004°32'5 9.4
2018-May-20 09:29N 53°29' E 004°35'14610.4
2018-May-19 19:25N 55°37' E 006°37'410.3
2018-May-19 19:00N 55°40' E 006°41'510.3
2018-May-19 18:29N 55°45' E 006°45'510.3
2018-May-19 18:01N 55°49' E 006°50'20010.4
2018-May-18 22:44N 58°37' E 010°13'210.6
2018-May-18 22:30N 58°39' E 010°16'510.3
2018-May-18 22:01N 58°43' E 010°21'510.4
2018-May-18 21:31N 58°47' E 010°27'611.0
2018-May-18 21:01N 58°52' E 010°33'611.0
2018-May-18 20:31N 58°56' E 010°39'510.8
2018-May-18 20:01N 59°01' E 010°45'4 8.8
2018-May-18 19:31N 59°01' E 010°54'3 6.2
2018-May-18 19:01N 59°03' E 010°58'510.5
2018-May-18 18:30N 59°09' E 010°58'3 5.2
2018-May-18 18:00N 59°11' E 010°57'0 0.0
2018-May-18 17:30N 59°11' E 010°57'0 0.0
2018-May-18 17:00N 59°11' E 010°57'0 0.0
2018-May-18 16:30N 59°11' E 010°57'0 0.0
2018-May-18 16:00N 59°11' E 010°57'0 0.0
2018-May-18 15:30N 59°11' E 010°57'0 0.0
2018-May-18 15:00N 59°11' E 010°57'0 0.0
2018-May-18 14:30N 59°11' E 010°57'0 0.0
2018-May-18 14:00N 59°11' E 010°57'0 0.0
2018-May-18 13:30N 59°11' E 010°57'0 0.0
2018-May-18 13:00N 59°11' E 010°57'0 0.0
2018-May-18 12:30N 59°11' E 010°57'0 0.0
2018-May-18 12:00N 59°11' E 010°57'0 0.0
2018-May-18 11:30N 59°11' E 010°57'0 0.0
2018-May-18 11:00N 59°11' E 010°57'0 0.0
2018-May-18 10:30N 59°11' E 010°57'0 0.0
2018-May-18 10:00N 59°11' E 010°57'0 0.0
2018-May-18 09:30N 59°11' E 010°57'0 0.0
2018-May-18 09:00N 59°11' E 010°57'0 0.0
2018-May-18 08:30N 59°11' E 010°57'0 0.0
2018-May-18 08:00N 59°11' E 010°57'0 0.0
2018-May-18 07:30N 59°11' E 010°57'0 0.0
2018-May-18 07:00N 59°11' E 010°57'0 0.0
2018-May-18 06:30N 59°11' E 010°57'0 0.0
2018-May-18 06:00N 59°11' E 010°57'0 0.0
2018-May-18 05:30N 59°11' E 010°57'0 0.0
2018-May-18 05:00N 59°11' E 010°57'0 0.0
2018-May-18 04:30N 59°11' E 010°57'1 1.7
2018-May-18 04:00N 59°10' E 010°57'5 9.4
2018-May-18 03:30N 59°06' E 010°58'4 9.0
2018-May-18 03:00N 59°01' E 010°57'4 8.6
2018-May-18 02:30N 59°02' E 010°48'4 7.6
2018-May-18 02:00N 58°59' E 010°43'4 8.3
2018-May-18 01:30N 58°56' E 010°38'4 8.4
2018-May-18 01:00N 58°52' E 010°34'4 8.0
2018-May-18 00:30N 58°49' E 010°29'4 8.1
2018-May-18 00:00N 58°45' E 010°25'4 7.8
2018-May-17 23:30N 58°42' E 010°21'4 7.8
2018-May-17 23:00N 58°39' E 010°17'4 7.8
2018-May-17 22:30N 58°36' E 010°13'194 8.3
2018-May-16 23:08N 55°44' E 007°23'1 6.4
2018-May-16 23:00N 55°44' E 007°23'3 5.8
2018-May-16 22:30N 55°41' E 007°21'3 6.3
2018-May-16 21:59N 55°38' E 007°20'3 5.8
2018-May-16 21:30N 55°35' E 007°19'4 5.2
2018-May-16 20:48N 55°32' E 007°16'2 6.0
2018-May-16 20:30N 55°30' E 007°14'3 5.9
2018-May-16 20:00N 55°28' E 007°12'3 6.0
2018-May-16 19:30N 55°25' E 007°10'3 5.4
2018-May-16 19:00N 55°22' E 007°09'3 6.0
2018-May-16 18:30N 55°19' E 007°07'3 5.6
2018-May-16 18:00N 55°17' E 007°05'3 5.8
2018-May-16 17:30N 55°14' E 007°03'3 6.5
2018-May-16 17:00N 55°11' E 007°01'3 6.4
2018-May-16 16:30N 55°08' E 006°60'3 6.3
2018-May-16 16:00N 55°05' E 006°58'3 6.7
2018-May-16 15:30N 55°02' E 006°56'3 6.7
2018-May-16 15:00N 54°59' E 006°53'3 5.8
2018-May-16 14:30N 54°56' E 006°52'3 5.0
2018-May-16 14:00N 54°54' E 006°51'3 5.9
2018-May-16 13:30N 54°51' E 006°49'3 5.9
2018-May-16 13:00N 54°48' E 006°48'3 6.4
2018-May-16 12:29N 54°45' E 006°46'3 6.6
2018-May-16 12:00N 54°42' E 006°45'12 6.9
2018-May-16 10:20N 54°31' E 006°39'12 8.1
2018-May-16 08:54N 54°20' E 006°30'45 8.1
2018-May-16 03:24N 53°36' E 006°35'512.4
2018-May-16 02:59N 53°33' E 006°42'712.5
2018-May-16 02:28N 53°29' E 006°50'612.8
2018-May-16 01:58N 53°24' E 006°57'12 9.6
2018-May-16 00:42N 53°19' E 007°16'310.0
2018-May-16 00:27N 53°19' E 007°20'4 8.1
2018-May-16 00:00N 53°16' E 007°24'5 7.4
2018-May-15 23:23N 53°11' E 007°24'3 6.4
2018-May-15 22:52N 53°08' E 007°22'2 4.9
2018-May-15 22:28N 53°06' E 007°22'1 0.1
2018-May-15 17:44N 53°06' E 007°22'  

Dump ship's entire track history